createdAt,value
2019-05-07T00:01:23.479Z,16.32
2019-05-07T00:03:53.052Z,16.48
2019-05-07T00:06:23.186Z,16.40
2019-05-07T00:08:52.842Z,16.35
2019-05-07T00:11:22.507Z,16.75
2019-05-07T00:13:52.359Z,17.10
2019-05-07T00:16:22.548Z,17.60
2019-05-07T00:18:52.634Z,16.90
2019-05-07T00:21:23.339Z,16.40
2019-05-07T00:23:53.252Z,16.02
2019-05-07T00:26:22.771Z,16.30
2019-05-07T00:28:52.800Z,16.45
2019-05-07T00:31:23.506Z,16.13
2019-05-07T00:33:52.980Z,16.63
2019-05-07T00:36:34.248Z,16.25
2019-05-07T00:39:22.065Z,15.88
2019-05-07T00:41:57.883Z,15.17
2019-05-07T00:44:27.866Z,14.93
2019-05-07T00:46:57.365Z,15.60
2019-05-07T00:49:28.238Z,15.15
2019-05-07T00:51:57.810Z,14.50
2019-05-07T00:54:27.326Z,16.07
2019-05-07T00:56:57.013Z,15.70
2019-05-07T00:59:26.513Z,15.78
2019-05-07T01:01:56.014Z,15.68
2019-05-07T01:04:25.523Z,15.00
2019-05-07T01:06:55.018Z,15.50
2019-05-07T01:09:24.524Z,15.23
2019-05-07T01:11:54.030Z,15.20
2019-05-07T01:14:23.540Z,15.70
2019-05-07T01:16:53.103Z,14.85
2019-05-07T01:19:22.647Z,15.18
2019-05-07T01:21:52.616Z,14.95
2019-05-07T01:24:23.342Z,15.03
2019-05-07T01:26:53.134Z,15.25
2019-05-07T01:29:22.861Z,14.43
2019-05-07T01:31:58.375Z,13.87
2019-05-07T01:34:34.058Z,15.57
2019-05-07T01:37:03.572Z,15.50
2019-05-07T01:39:33.179Z,14.43
2019-05-07T01:42:02.712Z,14.83
2019-05-07T01:44:32.694Z,14.07
2019-05-07T01:47:02.668Z,14.95
2019-05-07T01:49:33.126Z,15.13
2019-05-07T01:52:03.292Z,13.62
2019-05-07T01:54:33.401Z,13.45
2019-05-07T01:57:03.158Z,13.70
2019-05-07T01:59:32.790Z,13.40
2019-05-07T02:02:09.080Z,14.10
2019-05-07T02:04:44.755Z,13.20
2019-05-07T02:07:33.393Z,12.85
2019-05-07T02:10:22.755Z,12.33
2019-05-07T02:12:52.672Z,11.57
2019-05-07T02:15:22.696Z,11.20
2019-05-07T02:17:52.669Z,11.70
2019-05-07T02:20:22.638Z,12.20
2019-05-07T02:22:53.231Z,12.00
2019-05-07T02:25:22.884Z,11.93
2019-05-07T02:27:52.905Z,12.00
2019-05-07T02:30:23.868Z,11.73
2019-05-07T02:32:54.108Z,11.50
2019-05-07T02:35:23.952Z,11.05
2019-05-07T02:38:06.580Z,12.60
2019-05-07T02:40:43.311Z,11.70
2019-05-07T02:43:14.057Z,10.85
2019-05-07T02:45:54.222Z,9.35
2019-05-07T02:48:27.532Z,8.45
2019-05-07T02:51:04.084Z,7.80
2019-05-07T02:53:42.821Z,8.68
2019-05-07T02:56:13.028Z,8.20
2019-05-07T02:58:43.482Z,8.30
2019-05-07T03:01:14.030Z,8.20
2019-05-07T03:03:44.939Z,8.30
2019-05-07T03:06:14.710Z,8.03
2019-05-07T03:08:44.495Z,7.83
2019-05-07T03:11:14.399Z,7.33
2019-05-07T03:13:44.001Z,8.63
2019-05-07T03:16:13.586Z,9.40
2019-05-07T03:18:44.703Z,9.48
2019-05-07T03:21:16.430Z,9.78
2019-05-07T03:24:05.002Z,9.95
2019-05-07T03:26:38.923Z,10.50
2019-05-07T03:29:13.202Z,11.22
2019-05-07T03:32:06.135Z,10.75
2019-05-07T03:34:45.827Z,11.37
2019-05-07T03:37:13.603Z,11.03
2019-05-07T03:39:44.353Z,11.50
2019-05-07T03:42:13.917Z,11.70
2019-05-07T03:44:53.780Z,12.73
2019-05-07T03:47:32.932Z,12.93
2019-05-07T03:50:03.212Z,12.53
2019-05-07T03:52:33.535Z,12.68
2019-05-07T03:55:03.859Z,12.82
2019-05-07T03:57:33.813Z,12.50
2019-05-07T04:00:04.407Z,11.48
2019-05-07T04:02:34.117Z,11.33
2019-05-07T04:05:04.499Z,9.83
2019-05-07T04:07:34.178Z,7.70
2019-05-07T04:10:04.877Z,8.38
2019-05-07T04:12:35.026Z,9.23
2019-05-07T04:15:05.737Z,8.93
2019-05-07T04:17:35.234Z,9.38
2019-05-07T04:20:04.998Z,9.30
2019-05-07T04:22:35.669Z,9.55
2019-05-07T04:25:24.056Z,8.90
2019-05-07T04:28:03.689Z,9.10
2019-05-07T04:30:34.269Z,8.38
2019-05-07T04:33:06.047Z,6.95
2019-05-07T04:35:53.533Z,7.40
2019-05-07T04:38:23.835Z,7.15
2019-05-07T04:40:53.694Z,7.90
2019-05-07T04:43:23.601Z,8.85
2019-05-07T04:45:53.854Z,8.98
2019-05-07T04:48:23.727Z,10.25
2019-05-07T04:50:55.536Z,9.63
2019-05-07T04:53:25.049Z,10.03
2019-05-07T04:55:54.566Z,10.40
2019-05-07T04:58:26.572Z,9.68
2019-05-07T05:00:55.273Z,10.08
2019-05-07T05:03:26.619Z,9.90
2019-05-07T05:05:56.130Z,10.23
2019-05-07T05:08:25.671Z,10.08
2019-05-07T05:10:55.208Z,9.85
2019-05-07T05:13:25.003Z,9.90
2019-05-07T05:15:54.508Z,9.43
2019-05-07T05:18:24.020Z,9.95
2019-05-07T05:21:18.574Z,9.65
2019-05-07T05:23:56.004Z,10.15
2019-05-07T05:26:25.521Z,9.63
2019-05-07T05:28:56.403Z,10.30
2019-05-07T05:31:25.986Z,10.95
2019-05-07T05:33:55.495Z,9.45
2019-05-07T05:36:24.999Z,10.08
2019-05-07T05:38:54.523Z,9.55
2019-05-07T05:41:25.597Z,9.70
2019-05-07T05:44:02.496Z,10.00
2019-05-07T05:46:33.163Z,10.18
2019-05-07T05:49:02.802Z,9.80
2019-05-07T05:51:52.517Z,9.33
2019-05-07T05:54:34.814Z,9.85
2019-05-07T05:57:32.125Z,9.50
2019-05-07T06:00:18.878Z,9.83
2019-05-07T06:02:57.107Z,9.65
2019-05-07T06:05:42.879Z,9.43
2019-05-07T06:08:37.272Z,8.78
2019-05-07T06:11:26.157Z,9.35
2019-05-07T06:14:02.302Z,8.90
2019-05-07T06:16:36.731Z,9.30
2019-05-07T06:19:16.825Z,10.90
2019-05-07T06:22:16.758Z,16.50
2019-05-07T06:24:56.402Z,8.08
2019-05-07T06:27:26.078Z,8.70
2019-05-07T06:29:55.592Z,8.33
2019-05-07T06:32:25.111Z,7.67
2019-05-07T06:34:54.647Z,8.25
2019-05-07T06:37:24.177Z,6.85
2019-05-07T06:40:25.717Z,7.00
2019-05-07T06:43:08.868Z,6.55
2019-05-07T06:45:42.261Z,5.00
2019-05-07T06:48:12.675Z,6.05
2019-05-07T06:50:56.591Z,5.67
2019-05-07T06:53:29.408Z,6.70
2019-05-07T06:56:02.529Z,6.40
2019-05-07T06:58:45.933Z,6.80
2019-05-07T07:01:38.378Z,5.83
2019-05-07T07:04:22.521Z,5.40
2019-05-07T07:07:04.562Z,5.37
2019-05-07T07:09:53.095Z,6.12
2019-05-07T07:12:26.103Z,4.90
2019-05-07T07:14:58.068Z,5.50
2019-05-07T07:17:26.945Z,5.20
2019-05-07T07:19:56.527Z,5.75
2019-05-07T07:22:26.059Z,5.37
2019-05-07T07:24:55.568Z,4.15
2019-05-07T07:27:25.119Z,4.22
2019-05-07T07:30:16.500Z,5.55
2019-05-07T07:32:47.226Z,4.58
2019-05-07T07:35:18.206Z,3.77
2019-05-07T07:37:47.723Z,4.30
2019-05-07T07:40:29.325Z,3.97
2019-05-07T07:42:58.835Z,3.67
2019-05-07T07:45:28.429Z,4.07
2019-05-07T07:47:57.935Z,4.00
2019-05-07T07:50:27.521Z,2.57
2019-05-07T07:52:57.024Z,2.90
2019-05-07T07:55:33.217Z,3.77
2019-05-07T07:58:22.202Z,3.20
2019-05-07T08:01:12.198Z,3.22
2019-05-07T08:03:41.888Z,3.22
2019-05-07T08:06:11.956Z,2.58
2019-05-07T08:08:42.463Z,2.50
2019-05-07T08:11:12.779Z,2.70
2019-05-07T08:13:42.550Z,2.90
2019-05-07T08:16:13.160Z,3.50
2019-05-07T08:18:43.821Z,3.30
2019-05-07T08:21:13.321Z,3.02
2019-05-07T08:23:42.830Z,3.30
2019-05-07T08:26:12.664Z,3.50
2019-05-07T08:28:42.228Z,3.50
2019-05-07T08:31:24.981Z,3.60
2019-05-07T08:34:03.444Z,4.08
2019-05-07T08:36:33.225Z,3.20
2019-05-07T08:39:02.779Z,3.70
2019-05-07T08:41:33.363Z,3.15
2019-05-07T08:44:14.615Z,3.50
2019-05-07T08:46:58.615Z,2.80
2019-05-07T08:49:36.898Z,2.08
2019-05-07T08:52:03.518Z,2.52
2019-05-07T08:54:33.637Z,2.15
2019-05-07T08:57:03.221Z,1.92
2019-05-07T08:59:33.906Z,1.77
2019-05-07T09:02:03.705Z,2.60
2019-05-07T09:04:33.213Z,2.83
2019-05-07T09:07:02.966Z,2.90
2019-05-07T09:09:32.789Z,2.90
2019-05-07T09:12:03.212Z,2.67
2019-05-07T09:14:32.808Z,2.80
2019-05-07T09:17:02.901Z,2.70
2019-05-07T09:19:46.777Z,3.33
2019-05-07T09:22:04.383Z,2.70
2019-05-07T09:24:33.882Z,3.02
2019-05-07T09:27:24.757Z,2.83
2019-05-07T09:30:16.074Z,2.97
2019-05-07T09:32:52.209Z,2.90
2019-05-07T09:35:25.267Z,3.67
2019-05-07T09:37:54.786Z,3.35
2019-05-07T09:40:24.292Z,3.35
2019-05-07T09:42:53.797Z,3.10
2019-05-07T09:45:23.366Z,3.35
2019-05-07T09:47:52.863Z,3.60
2019-05-07T09:50:22.380Z,3.02
2019-05-07T09:52:52.046Z,3.00
2019-05-07T09:55:23.373Z,2.85
2019-05-07T09:57:52.915Z,2.60
2019-05-07T10:00:23.259Z,2.87
2019-05-07T10:02:52.949Z,2.90
2019-05-07T10:05:22.536Z,3.00
2019-05-07T10:07:52.611Z,2.98
2019-05-07T10:10:22.390Z,2.75
2019-05-07T10:13:17.051Z,2.75
2019-05-07T10:15:46.612Z,2.72
2019-05-07T10:18:17.649Z,3.40
2019-05-07T10:20:47.226Z,3.60
2019-05-07T10:23:22.393Z,3.20
2019-05-07T10:25:53.329Z,2.50
2019-05-07T10:28:23.310Z,2.72
2019-05-07T10:30:54.329Z,3.00
2019-05-07T10:33:24.870Z,2.92
2019-05-07T10:35:54.459Z,2.80
2019-05-07T10:38:23.980Z,3.58
2019-05-07T10:40:53.565Z,3.50
2019-05-07T10:43:23.148Z,3.05
2019-05-07T10:46:12.637Z,2.97
2019-05-07T10:48:59.073Z,2.90
2019-05-07T10:51:28.586Z,3.35
2019-05-07T10:53:58.125Z,3.70
2019-05-07T10:56:27.708Z,4.00
2019-05-07T10:58:57.333Z,3.60
2019-05-07T11:01:34.129Z,3.45
2019-05-07T11:04:03.720Z,3.60
2019-05-07T11:06:33.222Z,3.70
2019-05-07T11:09:02.783Z,3.50
2019-05-07T11:11:33.905Z,3.40
2019-05-07T11:14:03.490Z,3.80
2019-05-07T11:16:37.372Z,3.90
2019-05-07T11:19:06.892Z,3.90
2019-05-07T11:21:36.468Z,3.57
2019-05-07T11:24:06.041Z,3.90
2019-05-07T11:26:35.551Z,3.30
2019-05-07T11:29:05.218Z,3.40
2019-05-07T11:31:35.682Z,4.00
2019-05-07T11:34:05.255Z,4.05
2019-05-07T11:36:34.863Z,4.40
2019-05-07T11:39:06.271Z,3.72
2019-05-07T11:41:47.272Z,3.90
2019-05-07T11:44:23.002Z,3.87
2019-05-07T11:47:12.303Z,3.80
2019-05-07T11:49:59.779Z,3.65
2019-05-07T11:52:35.783Z,3.80
2019-05-07T11:55:06.354Z,4.40
2019-05-07T11:57:35.908Z,4.30
2019-05-07T12:00:05.871Z,4.72
2019-05-07T12:02:35.390Z,4.70
2019-05-07T12:05:05.035Z,4.83
2019-05-07T12:07:34.527Z,4.60
2019-05-07T12:10:05.069Z,4.80
2019-05-07T12:12:34.550Z,4.80
2019-05-07T12:15:04.180Z,5.03
2019-05-07T12:17:33.759Z,5.45
2019-05-07T12:20:05.392Z,5.40
2019-05-07T12:22:47.367Z,4.75
2019-05-07T12:25:19.466Z,4.40
2019-05-07T12:27:50.529Z,5.22
2019-05-07T12:33:49.283Z,5.30
2019-05-07T12:36:18.876Z,5.00
2019-05-07T12:38:48.384Z,4.40
2019-05-07T12:41:33.207Z,5.20
2019-05-07T12:44:03.020Z,4.97
2019-05-07T12:46:33.808Z,4.90
2019-05-07T12:49:03.561Z,5.22
2019-05-07T12:51:38.543Z,4.97
2019-05-07T12:54:27.349Z,4.67
2019-05-07T12:56:56.988Z,4.90
2019-05-07T12:59:26.892Z,4.30
2019-05-07T13:02:21.419Z,4.80
2019-05-07T13:04:41.805Z,5.10
2019-05-07T13:07:29.201Z,4.80
2019-05-07T13:09:59.645Z,4.80
2019-05-07T13:12:32.703Z,5.67
2019-05-07T13:15:02.967Z,4.95
2019-05-07T13:17:34.382Z,5.72
2019-05-07T13:20:17.929Z,5.40
2019-05-07T13:22:47.056Z,4.40
2019-05-07T13:25:18.252Z,4.90
2019-05-07T13:27:47.757Z,5.00
2019-05-07T13:30:17.737Z,4.50
2019-05-07T13:33:12.374Z,5.30
2019-05-07T13:35:44.556Z,4.97
2019-05-07T13:38:51.975Z,4.92
2019-05-07T13:41:56.086Z,4.60
2019-05-07T13:44:33.332Z,4.90
2019-05-07T13:47:21.915Z,4.97
2019-05-07T13:49:53.741Z,4.80
2019-05-07T13:52:24.080Z,4.50
2019-05-07T13:54:54.028Z,5.75
2019-05-07T13:57:24.081Z,4.95
2019-05-07T13:59:54.334Z,4.70
2019-05-07T14:02:26.083Z,4.78
2019-05-07T14:04:55.729Z,5.20
2019-05-07T14:07:26.760Z,5.17
2019-05-07T14:09:56.317Z,5.58
2019-05-07T14:12:29.459Z,4.80
2019-05-07T14:14:59.027Z,4.90
2019-05-07T14:17:28.545Z,4.67
2019-05-07T14:19:58.076Z,4.37
2019-05-07T14:22:27.721Z,4.83
2019-05-07T14:24:57.255Z,4.30
2019-05-07T14:27:26.931Z,4.70
2019-05-07T14:29:56.501Z,4.70
2019-05-07T14:32:52.560Z,4.60
2019-05-07T14:35:48.702Z,4.62
2019-05-07T14:38:25.459Z,5.00
2019-05-07T14:40:54.975Z,4.50
2019-05-07T14:43:34.612Z,3.97
2019-05-07T14:46:04.393Z,5.03
2019-05-07T14:48:36.233Z,5.00
2019-05-07T14:51:05.295Z,5.20
2019-05-07T14:53:34.851Z,4.90
2019-05-07T14:56:04.406Z,4.70
2019-05-07T14:58:34.119Z,4.83
2019-05-07T15:01:03.741Z,4.45
2019-05-07T15:03:33.260Z,5.00
2019-05-07T15:06:02.936Z,4.15
2019-05-07T15:08:33.439Z,4.10
2019-05-07T15:11:03.101Z,3.90
2019-05-07T15:13:32.741Z,4.20
2019-05-07T15:16:03.098Z,3.90
2019-05-07T15:18:52.969Z,4.30
2019-05-07T15:21:22.984Z,3.95
2019-05-07T15:23:56.797Z,4.55
2019-05-07T15:26:27.465Z,4.25
2019-05-07T15:29:12.034Z,3.77
2019-05-07T15:32:18.736Z,4.00
2019-05-07T15:34:48.251Z,3.47
2019-05-07T15:37:18.707Z,3.80
2019-05-07T15:39:48.501Z,3.52
2019-05-07T15:42:18.067Z,3.80
2019-05-07T15:44:48.539Z,4.08
2019-05-07T15:47:23.471Z,4.67
2019-05-07T15:49:53.009Z,4.50
2019-05-07T15:52:51.462Z,4.50
2019-05-07T15:55:15.738Z,6.35
2019-05-07T15:57:45.550Z,8.98
2019-05-07T16:00:17.986Z,5.12
2019-05-07T16:02:53.565Z,4.35
2019-05-07T16:05:22.438Z,4.30
2019-05-07T16:07:52.473Z,4.35
2019-05-07T16:10:23.290Z,4.40
2019-05-07T16:12:53.433Z,3.85
2019-05-07T16:15:22.997Z,3.80
2019-05-07T16:17:57.618Z,4.70
2019-05-07T16:20:27.138Z,3.47
2019-05-07T16:23:12.118Z,3.75
2019-05-07T16:25:32.870Z,4.10
2019-05-07T16:28:04.897Z,3.63
2019-05-07T16:30:34.256Z,4.10
2019-05-07T16:33:03.763Z,4.10
2019-05-07T16:35:37.528Z,3.90
2019-05-07T16:38:07.775Z,3.90
2019-05-07T16:40:37.302Z,3.37
2019-05-07T16:43:06.847Z,3.40
2019-05-07T16:45:36.801Z,3.30
2019-05-07T16:48:06.397Z,3.83
2019-05-07T16:50:36.883Z,3.40
2019-05-07T16:53:06.842Z,4.00
2019-05-07T16:55:37.148Z,4.08
2019-05-07T16:58:12.569Z,3.98
2019-05-07T17:00:45.096Z,4.30
2019-05-07T17:03:19.112Z,3.60
2019-05-07T17:05:49.034Z,4.33
2019-05-07T17:08:26.633Z,4.00
2019-05-07T17:10:56.589Z,3.92
2019-05-07T17:13:26.370Z,4.30
2019-05-07T17:16:03.375Z,4.72
2019-05-07T17:18:35.563Z,5.80
2019-05-07T17:21:06.019Z,5.30
2019-05-07T17:23:44.238Z,7.53
2019-05-07T17:26:06.767Z,8.90
2019-05-07T17:28:36.561Z,8.20
2019-05-07T17:31:06.226Z,9.20
2019-05-07T17:33:35.787Z,8.87
2019-05-07T17:36:05.586Z,9.17
2019-05-07T17:38:35.096Z,9.70
2019-05-07T17:41:13.053Z,10.30
2019-05-07T17:43:36.327Z,11.90
2019-05-07T17:46:07.762Z,10.40
2019-05-07T17:48:37.751Z,10.37
2019-05-07T17:51:26.771Z,10.30
2019-05-07T17:54:00.159Z,10.13
2019-05-07T17:56:32.052Z,10.35
2019-05-07T17:59:02.888Z,9.35
2019-05-07T18:01:59.216Z,8.67
2019-05-07T18:04:36.549Z,8.90
2019-05-07T18:07:03.436Z,9.27
2019-05-07T18:09:33.823Z,8.80
2019-05-07T18:12:03.709Z,8.80
2019-05-07T18:14:33.447Z,9.03
2019-05-07T18:17:08.843Z,9.03
2019-05-07T18:19:38.535Z,8.77
2019-05-07T18:22:34.758Z,8.97
2019-05-07T18:25:46.209Z,9.20
2019-05-07T18:28:08.119Z,9.90
2019-05-07T18:30:37.691Z,9.78
2019-05-07T18:33:25.558Z,9.75
2019-05-07T18:35:55.165Z,9.75
2019-05-07T18:38:24.697Z,9.70
2019-05-07T18:40:54.221Z,9.40
2019-05-07T18:43:23.750Z,9.40
2019-05-07T18:45:53.267Z,10.03
2019-05-07T18:48:22.783Z,9.38
2019-05-07T18:50:52.366Z,8.80
2019-05-07T18:53:22.902Z,9.10
2019-05-07T18:55:52.425Z,9.60
2019-05-07T18:58:24.090Z,9.73
2019-05-07T19:01:11.769Z,9.63
2019-05-07T19:03:41.950Z,10.07
2019-05-07T19:06:13.366Z,9.23
2019-05-07T19:08:43.206Z,9.60
2019-05-07T19:11:12.832Z,10.10
2019-05-07T19:13:42.438Z,9.10
2019-05-07T19:16:12.674Z,9.50
2019-05-07T19:18:43.216Z,9.70
2019-05-07T19:21:12.917Z,10.07
2019-05-07T19:23:42.579Z,9.80
2019-05-07T19:26:13.328Z,9.60
2019-05-07T19:28:44.030Z,10.15
2019-05-07T19:31:13.527Z,9.50
2019-05-07T19:33:43.063Z,9.50
2019-05-07T19:36:12.748Z,9.87
2019-05-07T19:38:42.423Z,10.20
2019-05-07T19:41:12.443Z,10.27
2019-05-07T19:43:42.143Z,9.83
2019-05-07T19:46:12.628Z,9.40
2019-05-07T19:48:44.057Z,9.60
2019-05-07T19:51:13.294Z,11.00
2019-05-07T19:53:42.793Z,10.23
2019-05-07T19:56:17.989Z,10.90
2019-05-07T19:58:47.760Z,10.98
2019-05-07T20:01:22.784Z,11.33
2019-05-07T20:03:53.002Z,10.23
2019-05-07T20:06:23.453Z,10.50
2019-05-07T20:08:53.161Z,9.93
2019-05-07T20:11:28.525Z,10.70
2019-05-07T20:13:58.115Z,10.57
2019-05-07T20:16:27.832Z,10.07
2019-05-07T20:18:57.351Z,10.00
2019-05-07T20:21:26.959Z,9.28
2019-05-07T20:23:56.481Z,9.58
2019-05-07T20:26:26.009Z,10.20
2019-05-07T20:28:55.519Z,10.13
2019-05-07T20:31:25.030Z,9.87
2019-05-07T20:33:54.586Z,10.53
2019-05-07T20:36:24.162Z,10.60
2019-05-07T20:38:53.681Z,10.83
2019-05-07T20:41:23.461Z,9.95
2019-05-07T20:43:53.084Z,10.20
2019-05-07T20:46:22.594Z,10.10
2019-05-07T20:48:52.666Z,10.60
2019-05-07T20:51:23.085Z,10.90
2019-05-07T20:54:14.839Z,10.23
2019-05-07T20:56:55.877Z,11.40
2019-05-07T20:59:25.444Z,11.07
2019-05-07T21:01:54.948Z,11.55
2019-05-07T21:04:24.571Z,11.63
2019-05-07T21:06:54.150Z,11.60
2019-05-07T21:09:23.679Z,10.65
2019-05-07T21:11:53.171Z,11.40
2019-05-07T21:14:22.922Z,11.33
2019-05-07T21:16:52.466Z,11.20
2019-05-07T21:19:22.402Z,12.23
2019-05-07T21:21:52.103Z,12.10
2019-05-07T21:24:22.534Z,12.00
2019-05-07T21:26:53.064Z,12.73
2019-05-07T21:29:22.882Z,12.28
2019-05-07T21:31:52.548Z,12.20
2019-05-07T21:34:23.001Z,12.63
2019-05-07T21:36:52.695Z,12.07
2019-05-07T21:39:22.459Z,11.40
2019-05-07T21:41:52.132Z,12.28
2019-05-07T21:44:25.253Z,12.30
2019-05-07T21:46:53.816Z,11.90
2019-05-07T21:49:23.353Z,12.90
2019-05-07T21:51:54.617Z,12.33
2019-05-07T21:54:38.855Z,12.68
2019-05-07T21:57:32.830Z,12.80
2019-05-07T22:00:15.585Z,12.15
2019-05-07T22:02:46.723Z,12.13
2019-05-07T22:05:16.356Z,13.40
2019-05-07T22:07:45.878Z,13.05
2019-05-07T22:10:15.664Z,12.98
2019-05-07T22:12:45.241Z,13.50
2019-05-07T22:15:14.827Z,13.20
2019-05-07T22:17:44.490Z,13.50
2019-05-07T22:20:14.206Z,13.27
2019-05-07T22:22:43.707Z,13.43
2019-05-07T22:25:13.225Z,13.80
2019-05-07T22:27:44.341Z,13.22
2019-05-07T22:30:19.621Z,13.30
2019-05-07T22:32:56.456Z,13.37
2019-05-07T22:35:29.783Z,13.83
2019-05-07T22:38:00.900Z,12.70
2019-05-07T22:40:32.185Z,13.72
2019-05-07T22:43:03.248Z,14.10
2019-05-07T22:45:32.797Z,13.10
2019-05-07T22:48:02.910Z,13.20
2019-05-07T22:50:33.139Z,13.03
2019-05-07T22:53:02.916Z,12.93
2019-05-07T22:55:32.758Z,13.60
2019-05-07T22:58:07.088Z,13.70
2019-05-07T23:00:42.530Z,14.30
2019-05-07T23:03:12.344Z,14.73
2019-05-07T23:05:44.950Z,13.50
2019-05-07T23:08:14.114Z,15.13
2019-05-07T23:10:44.605Z,13.40
2019-05-07T23:13:14.220Z,14.87
2019-05-07T23:15:44.746Z,15.03
2019-05-07T23:18:14.267Z,14.75
2019-05-07T23:20:43.843Z,15.60
2019-05-07T23:23:14.221Z,15.80
2019-05-07T23:25:43.756Z,15.23
2019-05-07T23:28:13.276Z,15.27
2019-05-07T23:30:44.359Z,15.20
2019-05-07T23:33:14.002Z,15.70
2019-05-07T23:35:43.598Z,14.87
2019-05-07T23:38:15.905Z,16.90
2019-05-07T23:41:02.167Z,15.60
2019-05-07T23:43:32.006Z,14.30
2019-05-07T23:46:02.490Z,15.65
2019-05-07T23:48:32.222Z,16.07
2019-05-07T23:51:02.286Z,15.88
2019-05-07T23:53:31.859Z,16.02
2019-05-07T23:56:02.846Z,16.75
2019-05-07T23:58:32.693Z,16.37
